createdAt,value
2019-03-10T00:00:37.404Z,15.49
2019-03-10T00:03:07.861Z,15.40
2019-03-10T00:05:38.272Z,15.38
2019-03-10T00:08:08.588Z,15.40
2019-03-10T00:10:39.040Z,15.34
2019-03-10T00:13:09.526Z,15.29
2019-03-10T00:15:39.871Z,15.22
2019-03-10T00:18:10.312Z,15.19
2019-03-10T00:20:40.835Z,15.11
2019-03-10T00:23:11.229Z,15.12
2019-03-10T00:25:41.536Z,15.10
2019-03-10T00:28:12.036Z,15.07
2019-03-10T00:30:42.546Z,15.02
2019-03-10T00:33:12.931Z,14.97
2019-03-10T00:35:43.386Z,14.99
2019-03-10T00:38:13.885Z,15.02
2019-03-10T00:41:32.132Z,15.02
2019-03-10T00:44:38.697Z,14.90
2019-03-10T00:47:59.448Z,14.87
2019-03-10T00:51:12.456Z,14.86
2019-03-10T00:53:42.830Z,14.85
2019-03-10T00:56:13.094Z,14.91
2019-03-10T00:58:43.574Z,14.97
2019-03-10T01:01:16.549Z,15.00
2019-03-10T01:03:47.089Z,15.03
2019-03-10T01:06:17.609Z,15.02
2019-03-10T01:08:48.325Z,15.04
2019-03-10T01:11:19.177Z,14.99
2019-03-10T01:13:49.526Z,14.93
2019-03-10T01:16:20.535Z,14.98
2019-03-10T01:18:51.947Z,14.95
2019-03-10T01:21:23.160Z,14.96
2019-03-10T01:23:53.981Z,14.92
2019-03-10T01:26:24.511Z,14.84
2019-03-10T01:28:55.074Z,14.85
2019-03-10T01:31:31.875Z,14.82
2019-03-10T01:34:45.709Z,14.73
2019-03-10T01:37:16.341Z,14.63
2019-03-10T01:39:47.012Z,14.55
2019-03-10T01:42:17.280Z,14.50
2019-03-10T01:44:48.021Z,14.44
2019-03-10T01:47:18.511Z,14.39
2019-03-10T01:49:48.883Z,14.33
2019-03-10T01:52:19.291Z,14.20
2019-03-10T01:54:49.866Z,14.11
2019-03-10T01:57:20.229Z,14.10
2019-03-10T01:59:50.734Z,13.97
2019-03-10T02:02:25.809Z,13.87
2019-03-10T02:04:53.491Z,13.80
2019-03-10T02:07:23.809Z,13.80
2019-03-10T02:09:54.258Z,13.72
2019-03-10T02:12:24.831Z,13.44
2019-03-10T02:14:55.324Z,13.26
2019-03-10T02:17:26.045Z,13.26
2019-03-10T02:19:57.018Z,13.34
2019-03-10T02:22:27.537Z,13.34
2019-03-10T02:24:58.004Z,13.50
2019-03-10T02:27:28.373Z,13.50
2019-03-10T02:29:59.002Z,13.49
2019-03-10T02:32:29.407Z,13.44
2019-03-10T02:34:59.754Z,13.32
2019-03-10T02:37:30.311Z,13.16
2019-03-10T02:40:00.715Z,13.10
2019-03-10T02:42:31.293Z,13.10
2019-03-10T02:45:01.865Z,12.91
2019-03-10T02:47:32.680Z,12.85
2019-03-10T02:50:03.407Z,12.67
2019-03-10T02:52:33.868Z,12.56
2019-03-10T02:55:04.884Z,12.51
2019-03-10T02:57:35.421Z,12.60
2019-03-10T03:00:06.912Z,12.66
2019-03-10T03:02:37.188Z,12.90
2019-03-10T03:05:09.421Z,12.95
2019-03-10T03:07:40.226Z,13.03
2019-03-10T03:10:12.218Z,13.12
2019-03-10T03:12:42.698Z,13.20
2019-03-10T03:15:13.380Z,13.18
2019-03-10T03:17:43.926Z,13.35
2019-03-10T03:20:14.752Z,13.38
2019-03-10T03:22:45.190Z,13.41
2019-03-10T03:25:15.723Z,13.53
2019-03-10T03:27:46.371Z,13.59
2019-03-10T03:30:18.445Z,13.63
2019-03-10T03:32:49.159Z,13.69
2019-03-10T03:35:49.089Z,13.74
2019-03-10T03:38:22.523Z,13.84
2019-03-10T03:40:57.694Z,13.85
2019-03-10T03:43:28.377Z,13.88
2019-03-10T03:45:59.085Z,13.93
2019-03-10T03:48:29.423Z,13.84
2019-03-10T03:50:59.912Z,13.73
2019-03-10T03:53:30.460Z,13.51
2019-03-10T03:56:00.919Z,13.54
2019-03-10T03:58:31.475Z,13.24
2019-03-10T04:01:23.902Z,13.08
2019-03-10T04:03:54.607Z,12.85
2019-03-10T04:06:25.071Z,12.75
2019-03-10T04:08:55.576Z,12.62
2019-03-10T04:11:26.175Z,12.76
2019-03-10T04:13:56.960Z,12.90
2019-03-10T04:16:27.619Z,13.00
2019-03-10T04:18:58.116Z,13.00
2019-03-10T04:21:28.864Z,13.00
2019-03-10T04:23:59.742Z,13.05
2019-03-10T04:26:30.414Z,13.01
2019-03-10T04:29:00.931Z,12.99
2019-03-10T04:31:31.696Z,12.96
2019-03-10T04:34:02.397Z,12.99
2019-03-10T04:36:32.823Z,13.07
2019-03-10T04:39:03.535Z,13.10
2019-03-10T04:41:33.811Z,13.18
2019-03-10T04:44:04.498Z,13.32
2019-03-10T04:46:35.120Z,13.34
2019-03-10T04:49:05.584Z,13.27
2019-03-10T04:51:35.913Z,13.23
2019-03-10T04:54:06.327Z,13.28
2019-03-10T04:56:47.055Z,13.19
2019-03-10T04:59:17.584Z,13.30
2019-03-10T05:01:47.983Z,13.29
2019-03-10T05:04:18.363Z,13.31
2019-03-10T05:06:49.057Z,13.40
2019-03-10T05:09:19.521Z,13.44
2019-03-10T05:11:50.154Z,13.39
2019-03-10T05:14:20.824Z,13.32
2019-03-10T05:16:51.549Z,13.29
2019-03-10T05:19:22.297Z,13.31
2019-03-10T05:21:54.011Z,13.32
2019-03-10T05:24:24.756Z,13.31
2019-03-10T05:26:55.288Z,13.28
2019-03-10T05:29:25.879Z,13.26
2019-03-10T05:31:56.447Z,13.22
2019-03-10T05:34:27.150Z,13.29
2019-03-10T05:36:57.569Z,13.31
2019-03-10T05:39:27.938Z,13.36
2019-03-10T05:41:58.435Z,13.37
2019-03-10T05:44:28.996Z,13.34
2019-03-10T05:46:59.392Z,13.44
2019-03-10T05:49:29.841Z,13.46
2019-03-10T05:52:00.355Z,13.54
2019-03-10T05:54:31.095Z,13.55
2019-03-10T05:57:01.676Z,13.68
2019-03-10T05:59:32.205Z,13.74
2019-03-10T06:02:02.486Z,13.77
2019-03-10T06:04:32.959Z,13.86
2019-03-10T06:07:03.526Z,14.00
2019-03-10T06:09:34.056Z,14.16
2019-03-10T06:12:04.712Z,14.29
2019-03-10T06:14:38.346Z,14.39
2019-03-10T06:17:08.814Z,14.48
2019-03-10T06:19:39.280Z,14.60
2019-03-10T06:22:09.781Z,14.58
2019-03-10T06:24:40.199Z,14.54
2019-03-10T06:27:10.969Z,14.50
2019-03-10T06:29:41.396Z,14.56
2019-03-10T06:32:11.838Z,14.58
2019-03-10T06:34:42.274Z,14.63
2019-03-10T06:37:12.756Z,14.66
2019-03-10T06:39:43.145Z,14.68
2019-03-10T06:42:13.649Z,14.83
2019-03-10T06:44:44.376Z,14.90
2019-03-10T06:47:14.804Z,14.98
2019-03-10T06:49:46.534Z,15.16
2019-03-10T06:52:16.961Z,15.29
2019-03-10T06:54:47.399Z,15.40
2019-03-10T06:57:17.931Z,15.52
2019-03-10T06:59:50.021Z,15.69
2019-03-10T07:02:20.530Z,15.84
2019-03-10T07:04:51.198Z,16.15
2019-03-10T07:07:21.623Z,16.60
2019-03-10T07:09:51.970Z,16.99
2019-03-10T07:12:22.438Z,17.33
2019-03-10T07:14:52.910Z,17.86
2019-03-10T07:17:23.297Z,18.61
2019-03-10T07:19:54.914Z,19.79
2019-03-10T07:22:25.339Z,21.03
2019-03-10T07:24:55.749Z,22.00
2019-03-10T07:27:29.253Z,22.57
2019-03-10T07:30:06.936Z,23.23
2019-03-10T07:32:56.106Z,23.91
2019-03-10T07:35:54.330Z,24.22
2019-03-10T07:38:33.168Z,24.41
2019-03-10T07:41:28.702Z,25.30
2019-03-10T07:44:19.360Z,25.49
2019-03-10T07:47:00.187Z,25.38
2019-03-10T07:49:38.568Z,24.32
2019-03-10T07:52:46.197Z,23.85
2019-03-10T07:55:53.420Z,23.22
2019-03-10T07:58:41.184Z,22.05
2019-03-10T08:01:18.357Z,21.53
2019-03-10T08:04:10.523Z,21.45
2019-03-10T08:06:51.268Z,21.42
2019-03-10T08:09:55.842Z,21.57
2019-03-10T08:12:39.290Z,21.68
2019-03-10T08:15:28.526Z,21.63
2019-03-10T08:18:16.508Z,21.85
2019-03-10T08:21:06.047Z,22.34
2019-03-10T08:24:07.130Z,22.84
2019-03-10T08:26:55.204Z,22.89
2019-03-10T08:29:44.481Z,22.73
2019-03-10T08:32:33.715Z,22.94
2019-03-10T08:35:13.639Z,23.08
2019-03-10T08:38:01.677Z,23.20
2019-03-10T08:40:47.359Z,23.53
2019-03-10T08:43:47.494Z,23.79
2019-03-10T08:46:42.630Z,23.72
2019-03-10T08:49:23.273Z,23.68
2019-03-10T08:52:02.187Z,23.79
2019-03-10T08:54:51.339Z,24.02
2019-03-10T08:57:55.955Z,24.09
2019-03-10T09:01:00.258Z,24.19
2019-03-10T09:03:46.120Z,24.52
2019-03-10T09:06:35.314Z,24.89
2019-03-10T09:09:23.168Z,25.70
2019-03-10T09:12:03.148Z,26.80
2019-03-10T09:15:07.341Z,27.64
2019-03-10T09:17:59.025Z,28.26
2019-03-10T09:20:43.276Z,30.02
2019-03-10T09:23:31.899Z,31.21
2019-03-10T09:26:27.070Z,32.23
2019-03-10T09:29:11.413Z,33.56
2019-03-10T09:32:18.662Z,34.23
2019-03-10T09:35:00.727Z,35.10
2019-03-10T09:37:49.749Z,34.87
2019-03-10T09:40:54.152Z,33.14
2019-03-10T09:43:41.922Z,31.84
2019-03-10T09:46:21.431Z,33.02
2019-03-10T09:49:09.212Z,33.79
2019-03-10T09:52:04.272Z,33.47
2019-03-10T09:55:01.055Z,32.03
2019-03-10T09:57:53.590Z,31.89
2019-03-10T10:00:40.170Z,33.31
2019-03-10T10:03:38.401Z,33.07
2019-03-10T10:06:26.296Z,31.60
2019-03-10T10:09:16.567Z,31.11
2019-03-10T10:11:59.159Z,32.54
2019-03-10T10:14:44.176Z,35.01
2019-03-10T10:17:20.771Z,36.48
2019-03-10T10:20:12.674Z,38.69
2019-03-10T10:23:00.468Z,40.12
2019-03-10T10:25:39.499Z,40.84
2019-03-10T10:28:16.799Z,41.93
2019-03-10T10:30:59.029Z,42.77
2019-03-10T10:33:44.772Z,43.76
2019-03-10T10:36:32.718Z,43.71
2019-03-10T10:39:20.427Z,43.29
2019-03-10T10:42:04.092Z,42.17
2019-03-10T10:45:11.438Z,38.75
2019-03-10T10:47:58.911Z,37.74
2019-03-10T10:50:50.933Z,37.41
2019-03-10T10:53:39.057Z,37.47
2019-03-10T10:56:32.361Z,37.67
2019-03-10T10:59:20.787Z,33.98
2019-03-10T11:01:59.727Z,33.32
2019-03-10T11:04:57.858Z,34.24
2019-03-10T11:07:38.712Z,35.93
2019-03-10T11:10:24.895Z,38.27
2019-03-10T11:13:08.342Z,40.59
2019-03-10T11:15:48.107Z,41.83
2019-03-10T11:18:43.123Z,43.11
2019-03-10T11:21:19.185Z,43.75
2019-03-10T11:24:14.208Z,44.51
2019-03-10T11:27:09.199Z,45.35
2019-03-10T11:29:53.536Z,45.46
2019-03-10T11:32:45.433Z,46.33
2019-03-10T11:35:33.379Z,47.06
2019-03-10T11:38:13.414Z,47.36
2019-03-10T11:41:00.975Z,47.15
2019-03-10T11:43:49.148Z,46.59
2019-03-10T11:46:28.970Z,45.55
2019-03-10T11:49:17.168Z,46.16
2019-03-10T11:52:12.469Z,46.69
2019-03-10T11:55:01.731Z,47.01
2019-03-10T11:57:50.235Z,46.13
2019-03-10T12:00:38.258Z,46.77
2019-03-10T12:03:15.104Z,47.19
2019-03-10T12:06:05.624Z,47.39
2019-03-10T12:08:50.538Z,44.63
2019-03-10T12:11:20.548Z,43.91
2019-03-10T12:13:50.730Z,44.70
2019-03-10T12:16:20.989Z,45.05
2019-03-10T12:18:51.385Z,45.11
2019-03-10T12:21:21.572Z,45.00
2019-03-10T12:23:52.185Z,44.95
2019-03-10T12:26:22.473Z,45.26
2019-03-10T12:28:52.116Z,45.67
2019-03-10T12:31:22.222Z,46.05
2019-03-10T12:33:51.905Z,46.22
2019-03-10T12:36:21.996Z,46.23
2019-03-10T12:38:52.598Z,45.97
2019-03-10T12:41:22.863Z,46.55
2019-03-10T12:43:53.131Z,46.83
2019-03-10T12:46:22.965Z,46.83
2019-03-10T12:48:53.140Z,45.63
2019-03-10T12:51:27.599Z,45.12
2019-03-10T12:53:57.270Z,45.02
2019-03-10T12:56:27.101Z,45.50
2019-03-10T12:58:57.099Z,45.93
2019-03-10T13:01:26.784Z,46.02
2019-03-10T13:03:59.218Z,45.56
2019-03-10T13:06:28.767Z,45.63
2019-03-10T13:08:58.518Z,44.78
2019-03-10T13:11:28.459Z,44.19
2019-03-10T13:14:01.673Z,43.77
2019-03-10T13:16:31.567Z,43.33
2019-03-10T13:19:01.949Z,43.47
2019-03-10T13:21:31.808Z,43.36
2019-03-10T13:24:01.766Z,43.41
2019-03-10T13:26:31.630Z,43.35
2019-03-10T13:29:01.828Z,43.86
2019-03-10T13:31:31.653Z,43.85
2019-03-10T13:34:03.282Z,42.57
2019-03-10T13:36:33.676Z,41.21
2019-03-10T13:39:04.270Z,39.42
2019-03-10T13:41:34.379Z,37.74
2019-03-10T13:44:04.666Z,36.58
2019-03-10T13:46:34.820Z,35.48
2019-03-10T13:49:04.564Z,34.19
2019-03-10T13:51:34.943Z,33.23
2019-03-10T13:54:04.652Z,32.47
2019-03-10T13:56:35.000Z,31.84
2019-03-10T13:59:05.459Z,31.48
2019-03-10T14:01:35.438Z,30.86
2019-03-10T14:04:05.804Z,29.77
2019-03-10T14:06:36.241Z,29.13
2019-03-10T14:09:09.011Z,28.77
2019-03-10T14:11:39.511Z,28.22
2019-03-10T14:14:09.768Z,27.63
2019-03-10T14:16:40.174Z,27.47
2019-03-10T14:19:10.172Z,27.44
2019-03-10T14:21:40.484Z,27.14
2019-03-10T14:24:10.529Z,27.05
2019-03-10T14:26:40.658Z,26.87
2019-03-10T14:29:10.932Z,26.63
2019-03-10T14:31:41.224Z,26.50
2019-03-10T14:34:11.079Z,26.11
2019-03-10T14:36:41.364Z,25.75
2019-03-10T14:39:11.578Z,25.67
2019-03-10T14:41:41.938Z,25.58
2019-03-10T14:44:15.489Z,25.46
2019-03-10T14:46:48.963Z,24.71
2019-03-10T14:49:24.061Z,24.88
2019-03-10T14:51:57.443Z,24.89
2019-03-10T14:54:27.711Z,24.92
2019-03-10T14:56:58.004Z,24.91
2019-03-10T14:59:28.446Z,24.90
2019-03-10T15:02:00.305Z,24.72
2019-03-10T15:04:30.525Z,24.43
2019-03-10T15:07:03.062Z,24.61
2019-03-10T15:09:33.077Z,24.72
2019-03-10T15:12:03.487Z,24.46
2019-03-10T15:14:33.944Z,24.42
2019-03-10T15:17:04.442Z,24.22
2019-03-10T15:19:34.916Z,24.04
2019-03-10T15:22:05.303Z,23.92
2019-03-10T15:24:35.849Z,23.92
2019-03-10T15:27:06.240Z,23.49
2019-03-10T15:29:36.599Z,23.17
2019-03-10T15:32:06.949Z,23.13
2019-03-10T15:34:37.414Z,22.90
2019-03-10T15:37:07.841Z,22.96
2019-03-10T15:39:38.249Z,22.60
2019-03-10T15:42:08.575Z,22.71
2019-03-10T15:44:39.035Z,22.53
2019-03-10T15:47:09.448Z,22.26
2019-03-10T15:49:39.852Z,21.98
2019-03-10T15:52:10.286Z,21.76
2019-03-10T15:54:40.635Z,21.58
2019-03-10T15:57:11.031Z,21.48
2019-03-10T15:59:41.626Z,21.36
2019-03-10T16:02:12.048Z,21.13
2019-03-10T16:04:42.449Z,20.94
2019-03-10T16:07:12.941Z,20.86
2019-03-10T16:09:43.280Z,20.57
2019-03-10T16:12:13.751Z,20.47
2019-03-10T16:14:44.109Z,20.37
2019-03-10T16:17:14.456Z,20.35
2019-03-10T16:19:44.998Z,20.19
2019-03-10T16:22:15.504Z,20.02
2019-03-10T16:24:45.873Z,19.85
2019-03-10T16:27:16.237Z,19.67
2019-03-10T16:29:46.742Z,19.63
2019-03-10T16:32:17.074Z,19.62
2019-03-10T16:34:47.566Z,19.60
2019-03-10T16:37:18.212Z,19.59
2019-03-10T16:39:48.488Z,19.62
2019-03-10T16:42:18.918Z,19.62
2019-03-10T16:44:49.392Z,19.56
2019-03-10T16:47:19.900Z,19.55
2019-03-10T16:49:50.209Z,19.49
2019-03-10T16:52:20.602Z,19.48
2019-03-10T16:54:51.117Z,19.48
2019-03-10T16:57:21.648Z,19.47
2019-03-10T16:59:55.183Z,19.41
2019-03-10T17:02:25.698Z,19.31
2019-03-10T17:04:56.175Z,18.98
2019-03-10T17:07:26.663Z,18.86
2019-03-10T17:09:57.062Z,18.75
2019-03-10T17:12:27.440Z,18.64
2019-03-10T17:14:57.915Z,18.48
2019-03-10T17:17:28.356Z,18.18
2019-03-10T17:20:01.283Z,18.07
2019-03-10T17:22:31.786Z,17.91
2019-03-10T17:25:02.379Z,17.78
2019-03-10T17:27:32.737Z,17.60
2019-03-10T17:30:04.570Z,17.48
2019-03-10T17:32:37.297Z,17.43
2019-03-10T17:35:07.823Z,17.31
2019-03-10T17:37:38.229Z,17.18
2019-03-10T17:40:10.846Z,17.22
2019-03-10T17:42:41.459Z,17.15
2019-03-10T17:45:12.957Z,17.05
2019-03-10T17:47:43.512Z,17.07
2019-03-10T17:50:14.308Z,16.95
2019-03-10T17:52:44.729Z,16.77
2019-03-10T17:55:15.689Z,16.68
2019-03-10T17:57:46.197Z,16.52
2019-03-10T18:00:18.841Z,16.38
2019-03-10T18:02:49.328Z,16.28
2019-03-10T18:05:20.102Z,16.20
2019-03-10T18:07:50.639Z,16.13
2019-03-10T18:10:21.050Z,16.13
2019-03-10T18:12:51.335Z,16.11
2019-03-10T18:15:22.277Z,16.01
2019-03-10T18:17:53.029Z,16.18
2019-03-10T18:20:24.107Z,16.17
2019-03-10T18:22:54.659Z,16.19
2019-03-10T18:25:25.363Z,16.10
2019-03-10T18:27:56.934Z,16.15
2019-03-10T18:30:27.829Z,16.08
2019-03-10T18:32:58.550Z,16.06
2019-03-10T18:35:29.161Z,15.98
2019-03-10T18:37:59.699Z,16.03
2019-03-10T18:40:30.570Z,16.02
2019-03-10T18:43:01.285Z,15.99
2019-03-10T18:45:32.009Z,16.01
2019-03-10T18:48:02.475Z,16.07
2019-03-10T18:50:32.965Z,16.20
2019-03-10T18:53:03.692Z,16.27
2019-03-10T18:55:34.034Z,16.26
2019-03-10T18:58:04.568Z,16.35
2019-03-10T19:00:35.381Z,16.43
2019-03-10T19:03:05.930Z,16.51
2019-03-10T19:05:36.530Z,16.71
2019-03-10T19:08:07.214Z,16.71
2019-03-10T19:10:37.862Z,16.68
2019-03-10T19:13:08.476Z,16.63
2019-03-10T19:15:39.344Z,16.55
2019-03-10T19:18:10.057Z,16.51
2019-03-10T19:20:40.529Z,16.41
2019-03-10T19:23:10.953Z,16.34
2019-03-10T19:25:41.744Z,16.30
2019-03-10T19:28:12.553Z,16.53
2019-03-10T19:30:43.034Z,16.68
2019-03-10T19:33:13.451Z,16.85
2019-03-10T19:35:43.998Z,17.06
2019-03-10T19:38:14.619Z,17.07
2019-03-10T19:40:45.048Z,17.17
2019-03-10T19:43:15.441Z,17.34
2019-03-10T19:45:45.888Z,17.45
2019-03-10T19:48:16.469Z,17.48
2019-03-10T19:50:47.083Z,17.61
2019-03-10T19:53:17.789Z,17.54
2019-03-10T19:55:48.203Z,17.50
2019-03-10T19:58:18.816Z,17.51
2019-03-10T20:00:49.425Z,17.42
2019-03-10T20:03:20.055Z,17.48
2019-03-10T20:05:50.619Z,17.41
2019-03-10T20:08:21.033Z,17.31
2019-03-10T20:10:51.602Z,17.20
2019-03-10T20:13:22.133Z,17.10
2019-03-10T20:15:52.883Z,17.00
2019-03-10T20:18:23.235Z,16.93
2019-03-10T20:20:53.774Z,16.98
2019-03-10T20:23:24.339Z,16.79
2019-03-10T20:25:54.740Z,16.86
2019-03-10T20:28:25.391Z,16.82
2019-03-10T20:30:55.911Z,16.67
2019-03-10T20:33:26.581Z,16.60
2019-03-10T20:35:56.871Z,16.58
2019-03-10T20:38:28.846Z,16.50
2019-03-10T20:40:59.523Z,16.39
2019-03-10T20:43:30.245Z,16.48
2019-03-10T20:46:00.801Z,16.44
2019-03-10T20:48:32.803Z,16.26
2019-03-10T20:51:05.246Z,16.17
2019-03-10T20:53:35.540Z,16.15
2019-03-10T20:56:07.711Z,16.09
2019-03-10T20:58:38.169Z,15.98
2019-03-10T21:01:08.750Z,15.94
2019-03-10T21:03:39.572Z,15.83
2019-03-10T21:06:12.171Z,15.82
2019-03-10T21:08:42.630Z,15.77
2019-03-10T21:11:13.205Z,15.69
2019-03-10T21:13:43.762Z,15.60
2019-03-10T21:16:14.494Z,15.51
2019-03-10T21:18:44.920Z,15.38
2019-03-10T21:21:15.611Z,15.48
2019-03-10T21:23:46.199Z,15.50
2019-03-10T21:26:16.639Z,15.39
2019-03-10T21:28:47.392Z,15.42
2019-03-10T21:31:17.748Z,15.18
2019-03-10T21:33:48.274Z,14.96
2019-03-10T21:36:19.074Z,14.99
2019-03-10T21:38:49.601Z,14.79
2019-03-10T21:41:20.141Z,14.62
2019-03-10T21:43:50.546Z,14.65
2019-03-10T21:46:21.411Z,14.60
2019-03-10T21:48:52.027Z,14.60
2019-03-10T21:51:22.960Z,14.70
2019-03-10T21:53:53.818Z,14.60
2019-03-10T21:56:24.360Z,14.63
2019-03-10T21:58:54.810Z,14.69
2019-03-10T22:01:25.482Z,14.69
2019-03-10T22:03:56.144Z,14.69
2019-03-10T22:06:26.652Z,14.62
2019-03-10T22:08:58.501Z,14.64
2019-03-10T22:11:28.973Z,14.64
2019-03-10T22:13:59.867Z,14.63
2019-03-10T22:16:31.448Z,14.58
2019-03-10T22:19:04.630Z,14.65
2019-03-10T22:21:35.223Z,14.55
2019-03-10T22:24:05.784Z,14.46
2019-03-10T22:26:36.139Z,14.37
2019-03-10T22:29:06.569Z,14.15
2019-03-10T22:31:37.054Z,14.00
2019-03-10T22:34:07.679Z,13.92
2019-03-10T22:36:38.316Z,13.81
2019-03-10T22:39:09.638Z,13.88
2019-03-10T22:41:40.225Z,13.70
2019-03-10T22:44:10.613Z,13.60
2019-03-10T22:46:41.357Z,13.63
2019-03-10T22:49:12.145Z,13.50
2019-03-10T22:51:42.515Z,13.47
2019-03-10T22:54:13.185Z,13.40
2019-03-10T22:56:44.055Z,13.27
2019-03-10T22:59:14.541Z,13.22
2019-03-10T23:01:45.156Z,13.27
2019-03-10T23:04:15.962Z,13.24
2019-03-10T23:06:46.615Z,13.13
2019-03-10T23:09:17.374Z,13.15
2019-03-10T23:11:48.007Z,13.15
2019-03-10T23:14:18.262Z,13.04
2019-03-10T23:16:48.680Z,12.98
2019-03-10T23:19:19.336Z,12.95
2019-03-10T23:21:50.073Z,12.95
2019-03-10T23:24:20.587Z,12.90
2019-03-10T23:26:51.308Z,12.84
2019-03-10T23:29:21.947Z,12.76
2019-03-10T23:31:52.393Z,12.82
2019-03-10T23:34:22.963Z,12.98
2019-03-10T23:36:53.718Z,13.08
2019-03-10T23:39:24.362Z,13.11
2019-03-10T23:41:54.744Z,13.15
2019-03-10T23:44:25.339Z,13.03
2019-03-10T23:46:56.125Z,12.89
2019-03-10T23:49:26.765Z,12.83
2019-03-10T23:51:57.519Z,12.76
2019-03-10T23:54:28.089Z,12.82
2019-03-10T23:56:58.699Z,12.66
2019-03-10T23:59:29.217Z,12.72
